Time;durP1;ratioP1;P1;durP2;ratioP2;P2;SDS_P1;SDS_P2;PMS_P1;PMS_P2;Temp;Humidity;BMP_temperature;BMP_pressure;BME280_temperature;BME280_humidity;BME280_pressure;Samples;Min_cycle;Max_cycle;Signal;HPM_P1;HPM_P2
2021/08/28 00:02:12;;;;;;;5.93;4.07;;;16.00;99.10;;;;;;5026774;28;20131;-66
2021/08/28 00:04:38;;;;;;;7.70;3.85;;;16.00;99.20;;;;;;5026927;28;20032;-66
2021/08/28 00:07:04;;;;;;;5.00;4.13;;;15.90;99.40;;;;;;5026525;28;20609;-63
2021/08/28 00:09:30;;;;;;;5.85;4.10;;;15.90;99.50;;;;;;5026489;28;20018;-65
2021/08/28 00:11:56;;;;;;;7.15;4.05;;;15.90;99.50;;;;;;5024887;28;20037;-66
2021/08/28 00:14:22;;;;;;;6.00;4.47;;;15.90;99.60;;;;;;5009278;28;20056;-66
2021/08/28 00:16:47;;;;;;;4.93;3.85;;;15.90;99.60;;;;;;5032080;28;20017;-66
2021/08/28 00:19:13;;;;;;;6.60;4.50;;;15.90;99.60;;;;;;5025490;28;20108;-66
2021/08/28 00:21:39;;;;;;;5.05;4.15;;;15.90;99.50;;;;;;5024418;28;20108;-65
2021/08/28 00:24:05;;;;;;;6.85;4.45;;;15.80;99.60;;;;;;5025525;28;20129;-68
2021/08/28 00:26:30;;;;;;;4.15;3.67;;;15.80;99.70;;;;;;5027380;28;20029;-67
2021/08/28 00:28:56;;;;;;;5.13;3.90;;;15.80;99.80;;;;;;5026159;28;20499;-66
2021/08/28 00:31:22;;;;;;;5.35;4.20;;;15.80;99.70;;;;;;5024011;28;20039;-65
2021/08/28 00:33:48;;;;;;;5.05;3.83;;;15.90;99.80;;;;;;5025497;28;20021;-65
2021/08/28 00:36:14;;;;;;;4.68;3.70;;;15.80;99.70;;;;;;4992274;28;20029;-66
2021/08/28 00:38:39;;;;;;;4.13;3.30;;;15.80;99.70;;;;;;5025597;28;20373;-69
2021/08/28 00:41:05;;;;;;;6.82;3.50;;;15.90;99.70;;;;;;5026375;28;20029;-67
2021/08/28 00:43:31;;;;;;;4.80;3.70;;;15.90;99.70;;;;;;5023494;28;20521;-66
2021/08/28 00:45:58;;;;;;;6.38;3.85;;;15.90;99.70;;;;;;5027448;28;20037;-66
2021/08/28 00:48:24;;;;;;;5.50;3.70;;;15.90;99.70;;;;;;5025550;28;20748;-66
2021/08/28 00:50:50;;;;;;;5.05;3.80;;;15.80;99.70;;;;;;5028698;28;20061;-65
2021/08/28 00:53:16;;;;;;;6.47;3.83;;;15.90;99.80;;;;;;5026280;28;20060;-66
2021/08/28 00:55:43;;;;;;;4.43;3.60;;;15.90;99.80;;;;;;5028207;28;20113;-68
2021/08/28 00:58:09;;;;;;;4.55;3.50;;;15.90;99.70;;;;;;5029820;28;20103;-69
2021/08/28 01:00:45;;;;;;;4.68;3.33;;;15.90;99.70;;;;;;5028380;28;20663;-69
2021/08/28 01:03:13;;;;;;;4.75;3.60;;;15.90;99.70;;;;;;5026733;28;20033;-67
2021/08/28 01:06:00;;;;;;;6.03;3.72;;;15.90;99.60;;;;;;5028014;28;20053;-68
2021/08/28 01:08:44;;;;;;;4.85;3.40;;;15.90;99.60;;;;;;5026445;28;20123;-68
2021/08/28 01:11:10;;;;;;;5.15;3.83;;;15.90;99.70;;;;;;5026440;28;20025;-68
2021/08/28 01:13:37;;;;;;;5.07;3.35;;;16.00;99.60;;;;;;5029424;28;20379;-67
2021/08/28 01:16:05;;;;;;;4.25;3.67;;;16.00;99.60;;;;;;5035009;28;20116;-66
2021/08/28 01:18:31;;;;;;;4.72;3.40;;;15.90;99.60;;;;;;5027144;28;20029;-66
2021/08/28 01:21:04;;;;;;;6.20;4.00;;;16.00;99.70;;;;;;5010015;28;20029;-66
2021/08/28 01:23:33;;;;;;;4.55;3.30;;;16.00;99.70;;;;;;5026694;28;20083;-68
2021/08/28 01:26:05;;;;;;;5.43;3.95;;;15.90;99.60;;;;;;5024689;28;20084;-67
2021/08/28 01:28:37;;;;;;;5.30;4.13;;;16.00;99.70;;;;;;5026178;28;20037;-69
2021/08/28 01:31:03;;;;;;;6.45;4.55;;;15.90;99.70;;;;;;4993035;28;20434;-65
2021/08/28 01:33:29;;;;;;;5.50;4.10;;;15.90;99.70;;;;;;5029276;28;20026;-66
2021/08/28 01:35:56;;;;;;;6.03;4.15;;;16.00;99.70;;;;;;5030385;28;20126;-66
2021/08/28 01:38:22;;;;;;;8.05;3.70;;;16.00;99.70;;;;;;5028740;28;20427;-66
2021/08/28 01:40:49;;;;;;;5.18;3.60;;;16.00;99.70;;;;;;5029154;28;20534;-68
2021/08/28 01:43:16;;;;;;;5.03;3.53;;;15.90;99.60;;;;;;5027637;28;20029;-66
2021/08/28 01:45:41;;;;;;;6.53;3.90;;;15.90;99.70;;;;;;5029625;28;20022;-66
2021/08/28 01:48:11;;;;;;;4.72;3.47;;;15.90;99.70;;;;;;5029060;28;20036;-65
2021/08/28 01:50:36;;;;;;;5.07;3.65;;;16.00;99.60;;;;;;5027905;28;20033;-66
2021/08/28 01:53:02;;;;;;;4.75;3.60;;;16.00;99.60;;;;;;5027574;28;20027;-66
2021/08/28 01:55:28;;;;;;;4.22;3.55;;;16.00;99.60;;;;;;5030526;28;20034;-66
2021/08/28 01:57:54;;;;;;;5.72;3.83;;;15.90;99.70;;;;;;5009429;28;20071;-69
2021/08/28 02:00:20;;;;;;;5.50;3.55;;;15.90;99.70;;;;;;5030648;28;20041;-67
2021/08/28 02:02:46;;;;;;;6.60;4.30;;;15.90;99.80;;;;;;5009762;28;20042;-67
2021/08/28 02:05:13;;;;;;;4.97;4.00;;;15.90;99.90;;;;;;5030609;28;20033;-68
2021/08/28 02:07:47;;;;;;;6.45;4.00;;;15.90;99.90;;;;;;5027395;28;20128;-68
2021/08/28 02:10:23;;;;;;;5.30;3.92;;;15.90;99.90;;;;;;5028886;28;20027;-69
2021/08/28 02:12:54;;;;;;;5.50;3.78;;;15.80;99.90;;;;;;5009732;28;20113;-66
2021/08/28 02:15:26;;;;;;;7.25;4.13;;;15.80;99.90;;;;;;5029099;28;20483;-66
2021/08/28 02:18:15;;;;;;;6.38;4.03;;;15.80;99.90;;;;;;5027906;28;20120;-65
2021/08/28 02:20:44;;;;;;;6.22;4.10;;;15.80;99.90;;;;;;5008978;28;20044;-69
2021/08/28 02:23:14;;;;;;;5.35;4.20;;;15.80;99.90;;;;;;5027170;28;20087;-68
2021/08/28 02:26:01;;;;;;;5.95;3.88;;;15.80;99.90;;;;;;5029459;28;20036;-69
2021/08/28 02:28:33;;;;;;;4.57;3.88;;;15.80;99.90;;;;;;5027593;28;20047;-68
2021/08/28 02:31:01;;;;;;;6.18;4.05;;;15.70;99.90;;;;;;5010811;28;20029;-68
2021/08/28 02:33:28;;;;;;;5.22;3.33;;;15.70;99.90;;;;;;5028993;28;20037;-68
2021/08/28 02:35:56;;;;;;;7.70;3.30;;;15.70;99.90;;;;;;5028672;28;20491;-68
2021/08/28 02:38:24;;;;;;;7.25;3.60;;;15.70;99.90;;;;;;5027511;28;20064;-67
2021/08/28 02:40:51;;;;;;;3.55;2.90;;;15.70;99.90;;;;;;5026555;28;20029;-68
2021/08/28 02:43:18;;;;;;;4.95;2.90;;;15.70;99.90;;;;;;5028331;28;20518;-67
2021/08/28 02:45:47;;;;;;;3.47;2.53;;;15.70;99.90;;;;;;5027638;28;20131;-68
2021/08/28 02:48:17;;;;;;;3.95;2.35;;;15.60;99.90;;;;;;5027372;28;20063;-67
2021/08/28 02:50:43;;;;;;;4.13;2.28;;;15.60;99.90;;;;;;5028669;28;20410;-68
2021/08/28 02:53:12;;;;;;;3.70;2.30;;;15.60;99.90;;;;;;5027704;28;20030;-67
2021/08/28 02:55:39;;;;;;;3.30;2.35;;;15.60;99.90;;;;;;5027559;28;20041;-67
2021/08/28 02:58:06;;;;;;;2.95;2.10;;;15.60;99.90;;;;;;5007067;28;20046;-68
2021/08/28 03:00:32;;;;;;;3.08;2.20;;;15.50;99.90;;;;;;5028036;28;20521;-68
2021/08/28 03:02:58;;;;;;;3.35;2.10;;;15.50;99.90;;;;;;5027003;28;20033;-67
2021/08/28 03:05:24;;;;;;;3.63;2.53;;;15.50;99.90;;;;;;5027611;28;20045;-67
2021/08/28 03:07:50;;;;;;;3.65;2.30;;;15.40;99.90;;;;;;5025454;28;20033;-65
2021/08/28 03:10:17;;;;;;;2.85;2.20;;;15.40;99.90;;;;;;5029225;28;20025;-66
2021/08/28 03:12:43;;;;;;;3.10;2.22;;;15.40;99.90;;;;;;5026343;28;20031;-66
2021/08/28 03:15:10;;;;;;;2.90;2.28;;;15.40;99.90;;;;;;5028397;28;20033;-67
2021/08/28 03:17:37;;;;;;;2.83;2.17;;;15.50;99.90;;;;;;5025877;28;20088;-65
2021/08/28 03:20:04;;;;;;;2.20;1.98;;;15.50;99.90;;;;;;5009821;28;20029;-68
2021/08/28 03:22:32;;;;;;;2.55;2.13;;;15.50;99.90;;;;;;5026987;28;20566;-67
2021/08/28 03:24:58;;;;;;;4.15;2.25;;;15.50;99.90;;;;;;5028352;28;20067;-67
2021/08/28 03:27:25;;;;;;;3.05;2.20;;;15.50;99.90;;;;;;5026972;28;20038;-68
2021/08/28 03:29:52;;;;;;;1.98;1.77;;;15.50;99.90;;;;;;5028458;28;20108;-68
2021/08/28 03:32:19;;;;;;;3.33;1.77;;;15.50;99.90;;;;;;5027380;28;20044;-67
2021/08/28 03:34:46;;;;;;;3.60;1.92;;;15.50;99.90;;;;;;5011439;28;20068;-67
2021/08/28 03:37:13;;;;;;;2.90;1.92;;;15.50;99.90;;;;;;5027498;28;20033;-67
2021/08/28 03:39:40;;;;;;;2.20;1.80;;;15.50;99.90;;;;;;5024290;28;20064;-68
2021/08/28 03:42:07;;;;;;;2.53;2.13;;;15.40;99.90;;;;;;5027602;28;20376;-68
2021/08/28 03:44:38;;;;;;;2.75;2.42;;;15.40;99.90;;;;;;5027451;28;20483;-68
2021/08/28 03:47:04;;;;;;;3.38;2.50;;;15.50;99.90;;;;;;5026938;28;20033;-68
2021/08/28 03:49:30;;;;;;;3.50;2.38;;;15.40;99.90;;;;;;5027246;28;20030;-68
2021/08/28 03:51:56;;;;;;;3.55;2.67;;;15.50;99.90;;;;;;5026622;28;20029;-68
2021/08/28 03:54:22;;;;;;;3.03;2.50;;;15.50;99.90;;;;;;5025845;28;20464;-68
2021/08/28 03:56:47;;;;;;;3.08;2.72;;;15.50;99.90;;;;;;5025463;28;20043;-68
2021/08/28 03:59:13;;;;;;;3.35;2.60;;;15.50;99.90;;;;;;5027210;28;20029;-68
2021/08/28 04:01:39;;;;;;;3.13;2.83;;;15.50;99.90;;;;;;5025554;28;20080;-67
2021/08/28 04:04:04;;;;;;;3.30;3.00;;;15.50;99.90;;;;;;5027867;28;20032;-68
2021/08/28 04:06:30;;;;;;;4.30;2.70;;;15.50;99.90;;;;;;5026046;28;20495;-68
2021/08/28 04:08:56;;;;;;;3.33;2.75;;;15.50;99.90;;;;;;5028269;28;20052;-67
2021/08/28 04:11:21;;;;;;;4.80;3.50;;;15.50;99.90;;;;;;5028282;28;20673;-68
2021/08/28 04:13:47;;;;;;;3.55;2.88;;;15.50;99.90;;;;;;5026972;28;20558;-67
2021/08/28 04:16:13;;;;;;;4.38;2.92;;;15.50;99.90;;;;;;5028260;28;20033;-66
2021/08/28 04:18:38;;;;;;;3.47;2.90;;;15.50;99.90;;;;;;5027161;28;20042;-68
2021/08/28 04:21:04;;;;;;;3.97;3.08;;;15.50;99.90;;;;;;5026787;28;20029;-68
2021/08/28 04:23:30;;;;;;;3.72;3.22;;;15.50;99.90;;;;;;5025989;28;20041;-68
2021/08/28 04:25:55;;;;;;;4.45;3.40;;;15.50;99.90;;;;;;5029080;28;20033;-67
2021/08/28 04:28:21;;;;;;;3.65;3.05;;;15.50;99.90;;;;;;5008486;28;20029;-68
2021/08/28 04:30:47;;;;;;;3.88;2.95;;;15.50;99.90;;;;;;5026913;28;20452;-67
2021/08/28 04:33:14;;;;;;;3.30;2.72;;;15.50;99.90;;;;;;5025938;28;20478;-68
2021/08/28 04:35:40;;;;;;;3.75;2.50;;;15.50;99.90;;;;;;5025408;28;20767;-67
2021/08/28 04:38:06;;;;;;;2.17;1.98;;;15.40;99.90;;;;;;5025367;28;20036;-67
2021/08/28 04:40:32;;;;;;;4.03;2.40;;;15.50;99.90;;;;;;5025066;28;20643;-68
2021/08/28 04:42:58;;;;;;;3.70;2.22;;;15.50;99.90;;;;;;5025985;28;20041;-67
2021/08/28 04:45:24;;;;;;;2.42;1.80;;;15.40;99.90;;;;;;5026406;28;20052;-69
2021/08/28 04:47:50;;;;;;;3.08;2.05;;;15.50;99.90;;;;;;5024255;28;20022;-68
2021/08/28 04:50:15;;;;;;;2.75;2.22;;;15.50;99.90;;;;;;5025225;28;20383;-68
2021/08/28 04:52:41;;;;;;;3.10;2.42;;;15.50;99.90;;;;;;5025422;28;20029;-67
2021/08/28 04:55:07;;;;;;;3.20;2.22;;;15.50;99.90;;;;;;5027304;28;20423;-68
2021/08/28 04:57:33;;;;;;;2.97;2.00;;;15.50;99.90;;;;;;5025678;28;20479;-68
2021/08/28 04:59:59;;;;;;;2.25;2.00;;;15.50;99.90;;;;;;5023858;28;20080;-68
2021/08/28 05:02:24;;;;;;;2.45;2.00;;;15.50;99.90;;;;;;5025093;28;20037;-68
2021/08/28 05:04:50;;;;;;;2.30;2.05;;;15.50;99.90;;;;;;5026979;28;20034;-68
2021/08/28 05:07:16;;;;;;;3.30;2.38;;;15.50;99.90;;;;;;5025403;28;20032;-67
2021/08/28 05:09:41;;;;;;;3.08;2.10;;;15.50;99.90;;;;;;5026290;28;20026;-68
2021/08/28 05:12:07;;;;;;;2.60;2.05;;;15.50;99.90;;;;;;5027391;28;20124;-67
2021/08/28 05:14:37;;;;;;;4.05;2.20;;;15.50;99.90;;;;;;5029539;28;20022;-67
2021/08/28 05:17:04;;;;;;;4.38;2.90;;;15.40;99.90;;;;;;5026143;28;20109;-68
2021/08/28 05:19:30;;;;;;;3.13;2.42;;;15.40;99.90;;;;;;5024967;28;20030;-67
2021/08/28 05:21:56;;;;;;;3.72;2.75;;;15.40;99.90;;;;;;5026562;28;20420;-66
2021/08/28 05:24:22;;;;;;;3.70;2.78;;;15.40;99.90;;;;;;5009787;28;20372;-68
2021/08/28 05:26:47;;;;;;;3.05;2.72;;;15.40;99.90;;;;;;5028487;28;20095;-67
2021/08/28 05:29:13;;;;;;;5.32;3.50;;;15.40;99.90;;;;;;5026831;28;20025;-68
2021/08/28 05:31:39;;;;;;;9.35;4.03;;;15.40;99.90;;;;;;5025369;28;20021;-67
2021/08/28 05:34:05;;;;;;;6.28;4.07;;;15.40;99.90;;;;;;5030324;28;20029;-68
2021/08/28 05:36:30;;;;;;;6.75;4.10;;;15.40;99.90;;;;;;5029405;28;20117;-68
2021/08/28 05:38:56;;;;;;;8.07;4.95;;;15.50;99.90;;;;;;5012583;28;20029;-67
2021/08/28 05:41:22;;;;;;;7.93;5.25;;;15.50;99.90;;;;;;5028337;28;20600;-67
2021/08/28 05:43:48;;;;;;;7.75;5.13;;;15.50;99.90;;;;;;5029227;28;20040;-67
2021/08/28 05:46:14;;;;;;;7.82;6.05;;;15.50;99.90;;;;;;5029911;28;20025;-67
2021/08/28 05:48:40;;;;;;;8.85;6.47;;;15.50;99.90;;;;;;5028057;28;20443;-68
2021/08/28 05:51:06;;;;;;;10.93;7.32;;;15.50;99.90;;;;;;5026102;28;20464;-68
2021/08/28 05:53:31;;;;;;;9.57;7.97;;;15.50;99.90;;;;;;5029386;28;20022;-69
2021/08/28 05:55:57;;;;;;;11.45;7.20;;;15.50;99.90;;;;;;5028869;28;20084;-70
2021/08/28 05:58:23;;;;;;;9.43;6.93;;;15.50;99.90;;;;;;5029694;28;20487;-69
2021/08/28 06:00:48;;;;;;;10.68;8.05;;;15.50;99.90;;;;;;5023000;28;20044;-70
2021/08/28 06:03:14;;;;;;;14.75;8.73;;;15.50;99.90;;;;;;5030694;28;20122;-70
2021/08/28 06:05:40;;;;;;;11.02;8.45;;;15.60;99.90;;;;;;5031611;28;20033;-69
2021/08/28 06:08:06;;;;;;;13.68;8.38;;;15.60;99.90;;;;;;5031190;28;20037;-69
2021/08/28 06:10:31;;;;;;;10.73;7.85;;;15.70;99.90;;;;;;5032430;28;20415;-68
2021/08/28 06:12:57;;;;;;;8.68;7.43;;;15.70;99.90;;;;;;5010425;28;20033;-68
2021/08/28 06:15:23;;;;;;;11.45;8.60;;;15.70;99.90;;;;;;5031061;28;20033;-68
2021/08/28 06:17:48;;;;;;;9.68;6.85;;;15.80;99.90;;;;;;5039242;28;20065;-69
2021/08/28 06:20:14;;;;;;;8.93;7.30;;;15.80;99.90;;;;;;5013731;28;20513;-69
2021/08/28 06:22:40;;;;;;;10.88;6.63;;;16.00;99.90;;;;;;5010110;28;20488;-69
2021/08/28 06:25:06;;;;;;;13.80;7.75;;;16.10;99.90;;;;;;5031591;28;20147;-69
2021/08/28 06:27:32;;;;;;;9.82;6.63;;;16.30;99.90;;;;;;5031468;28;20026;-69
2021/08/28 06:29:57;;;;;;;11.70;7.25;;;16.30;99.70;;;;;;5012955;28;20518;-69
2021/08/28 06:32:23;;;;;;;12.52;7.95;;;16.40;99.40;;;;;;5030128;28;20076;-69
2021/08/28 06:34:49;;;;;;;11.52;7.80;;;16.40;99.30;;;;;;5030537;28;20036;-69
2021/08/28 06:37:14;;;;;;;13.60;7.05;;;16.40;99.40;;;;;;5027960;28;20034;-69
2021/08/28 06:39:40;;;;;;;10.63;7.15;;;16.30;99.50;;;;;;5026807;28;20301;-69
2021/08/28 06:42:06;;;;;;;8.60;7.10;;;16.30;99.80;;;;;;5025292;28;20079;-69
2021/08/28 06:44:32;;;;;;;8.95;6.38;;;16.30;99.70;;;;;;5027990;28;20041;-69
2021/08/28 06:46:58;;;;;;;15.68;8.48;;;16.30;99.70;;;;;;5030038;28;20017;-69
2021/08/28 06:49:23;;;;;;;12.82;7.18;;;16.30;99.70;;;;;;5028048;28;20083;-68
2021/08/28 06:51:49;;;;;;;8.63;6.00;;;16.30;99.70;;;;;;5011933;28;20113;-69
2021/08/28 06:54:15;;;;;;;9.77;6.80;;;16.30;99.70;;;;;;5027526;28;20109;-66
2021/08/28 06:56:41;;;;;;;9.02;6.60;;;16.30;99.80;;;;;;5023241;28;20034;-68
2021/08/28 06:59:07;;;;;;;10.45;6.35;;;16.30;99.90;;;;;;5022051;28;20640;-69
2021/08/28 07:01:33;;;;;;;9.70;6.82;;;16.30;99.90;;;;;;5024714;28;20033;-69
2021/08/28 07:03:58;;;;;;;9.63;6.13;;;16.30;99.90;;;;;;5028740;28;20026;-68
2021/08/28 07:06:24;;;;;;;8.45;6.00;;;16.30;99.90;;;;;;5028117;28;20060;-69
2021/08/28 07:08:50;;;;;;;9.90;5.80;;;16.30;99.90;;;;;;5027170;28;20029;-69
2021/08/28 07:11:15;;;;;;;7.97;5.60;;;16.30;99.90;;;;;;5027798;28;20052;-67
2021/08/28 07:13:41;;;;;;;9.35;6.30;;;16.40;99.90;;;;;;5024556;28;20029;-68
2021/08/28 07:16:07;;;;;;;8.95;5.60;;;16.40;99.90;;;;;;5009888;28;20083;-69
2021/08/28 07:18:32;;;;;;;10.57;6.00;;;16.40;99.80;;;;;;5007283;28;20026;-69
2021/08/28 07:21:01;;;;;;;9.75;5.93;;;16.30;99.80;;;;;;5029687;28;20029;-69
2021/08/28 07:23:27;;;;;;;8.45;5.53;;;16.30;99.90;;;;;;5027755;28;20025;-68
2021/08/28 07:25:53;;;;;;;9.85;5.90;;;16.30;99.90;;;;;;5026320;28;20471;-68
2021/08/28 07:28:18;;;;;;;8.13;5.72;;;16.30;99.90;;;;;;5027566;28;20049;-68
2021/08/28 07:30:44;;;;;;;11.25;5.72;;;16.20;99.90;;;;;;5004349;28;20052;-68
2021/08/28 07:33:10;;;;;;;8.10;5.53;;;16.30;99.90;;;;;;5029431;28;20017;-66
2021/08/28 07:35:36;;;;;;;9.93;5.78;;;16.30;99.90;;;;;;5031315;28;20025;-67
2021/08/28 07:38:01;;;;;;;8.40;5.75;;;16.30;99.90;;;;;;5027573;28;20034;-69
2021/08/28 07:40:27;;;;;;;8.93;6.10;;;16.30;99.90;;;;;;5011863;28;20060;-68
2021/08/28 07:42:54;;;;;;;9.48;5.15;;;16.30;99.90;;;;;;5027303;28;20029;-68
2021/08/28 07:45:20;;;;;;;8.25;4.97;;;16.40;99.90;;;;;;5011398;28;20033;-68
2021/08/28 07:47:46;;;;;;;9.00;5.63;;;16.40;99.90;;;;;;5022229;28;20018;-67
2021/08/28 07:50:12;;;;;;;9.32;5.53;;;16.40;99.90;;;;;;5027060;28;20506;-69
2021/08/28 07:52:40;;;;;;;7.13;4.80;;;16.50;99.90;;;;;;5029325;28;20033;-68
2021/08/28 07:55:07;;;;;;;6.93;5.03;;;16.60;99.90;;;;;;5011990;28;20115;-68
2021/08/28 07:57:33;;;;;;;7.25;5.10;;;16.70;99.90;;;;;;5025288;28;20489;-68
2021/08/28 07:59:59;;;;;;;5.85;4.40;;;16.70;99.90;;;;;;5029514;28;20029;-71
2021/08/28 08:02:27;;;;;;;7.03;4.95;;;16.70;99.80;;;;;;5026251;28;21764;-69
2021/08/28 08:04:53;;;;;;;7.13;4.65;;;16.80;99.70;;;;;;5028540;28;20120;-68
2021/08/28 08:07:19;;;;;;;6.53;4.68;;;16.80;99.70;;;;;;5027859;28;20575;-67
2021/08/28 08:09:44;;;;;;;7.75;4.70;;;16.80;99.70;;;;;;5010211;28;20025;-66
2021/08/28 08:12:10;;;;;;;7.78;4.28;;;16.80;99.70;;;;;;5025867;28;20109;-68
2021/08/28 08:14:36;;;;;;;7.72;4.28;;;16.80;99.60;;;;;;5029897;28;20452;-68
2021/08/28 08:17:02;;;;;;;4.68;3.35;;;16.80;99.60;;;;;;5024216;28;20049;-66
2021/08/28 08:19:27;;;;;;;4.72;3.55;;;16.80;99.60;;;;;;4992353;28;20122;-67
2021/08/28 08:21:53;;;;;;;5.28;3.75;;;16.90;99.70;;;;;;4993737;28;20029;-67
2021/08/28 08:24:19;;;;;;;5.07;3.70;;;16.90;99.70;;;;;;5008861;28;20018;-67
2021/08/28 08:26:44;;;;;;;4.68;3.80;;;16.90;99.60;;;;;;5027859;28;20029;-68
2021/08/28 08:29:10;;;;;;;5.18;3.50;;;17.00;99.50;;;;;;5023425;28;20025;-66
2021/08/28 08:31:36;;;;;;;4.32;3.35;;;16.90;99.50;;;;;;5028508;28;20029;-68
2021/08/28 08:34:02;;;;;;;6.57;3.70;;;16.90;99.50;;;;;;5024947;28;20104;-68
2021/08/28 08:36:27;;;;;;;5.57;3.50;;;17.00;99.40;;;;;;5024748;28;20037;-68
2021/08/28 08:38:53;;;;;;;5.10;3.28;;;17.00;99.40;;;;;;5026220;28;20443;-68
2021/08/28 08:41:20;;;;;;;5.22;3.20;;;16.90;99.50;;;;;;5008724;28;20045;-68
2021/08/28 08:43:47;;;;;;;4.65;3.15;;;16.90;99.50;;;;;;5026335;28;20076;-68
2021/08/28 08:46:14;;;;;;;8.43;3.95;;;17.00;99.50;;;;;;5025923;28;20036;-70
2021/08/28 08:48:41;;;;;;;4.40;3.28;;;17.10;99.40;;;;;;5027137;28;20029;-68
2021/08/28 08:51:07;;;;;;;5.05;3.00;;;17.20;99.20;;;;;;5027358;28;20038;-68
2021/08/28 08:53:35;;;;;;;4.50;2.75;;;17.20;99.10;;;;;;5026722;28;20025;-66
2021/08/28 08:56:00;;;;;;;4.40;2.97;;;17.20;99.10;;;;;;5027861;28;20033;-68
2021/08/28 08:58:26;;;;;;;3.92;2.50;;;17.10;99.10;;;;;;5027114;28;20044;-69
2021/08/28 09:00:52;;;;;;;4.55;3.30;;;17.10;99.30;;;;;;5027034;28;20033;-67
2021/08/28 09:03:18;;;;;;;4.65;2.97;;;17.00;99.40;;;;;;5031276;28;20646;-67
2021/08/28 09:05:44;;;;;;;4.57;2.70;;;17.00;99.50;;;;;;5027841;28;20045;-67
2021/08/28 09:08:10;;;;;;;8.07;2.65;;;16.90;99.70;;;;;;5029086;28;20025;-67
2021/08/28 09:10:36;;;;;;;4.47;2.35;;;16.80;99.70;;;;;;5027256;28;20501;-70
2021/08/28 09:13:31;;;;;;;3.88;2.13;;;16.90;99.80;;;;;;5015198;28;20510;-68
2021/08/28 09:16:02;;;;;;;3.08;1.98;;;16.80;99.90;;;;;;5011914;28;20045;-68
2021/08/28 09:18:29;;;;;;;4.00;1.92;;;16.80;99.80;;;;;;5036652;28;20471;-68
2021/08/28 09:20:58;;;;;;;3.30;2.47;;;16.80;99.90;;;;;;5031593;28;20582;-68
2021/08/28 09:23:24;;;;;;;2.95;2.28;;;16.80;99.90;;;;;;5032417;28;20045;-68
2021/08/28 09:25:54;;;;;;;3.80;2.10;;;16.80;99.90;;;;;;5033096;28;20041;-67
2021/08/28 09:28:34;;;;;;;3.13;2.10;;;16.70;99.90;;;;;;5032073;28;20028;-68
2021/08/28 09:31:02;;;;;;;3.10;1.80;;;16.70;99.90;;;;;;5030531;28;20033;-68
2021/08/28 09:33:34;;;;;;;3.00;1.92;;;16.70;99.90;;;;;;5028665;28;20026;-67
2021/08/28 09:36:02;;;;;;;4.38;1.70;;;16.80;99.90;;;;;;5030862;28;20040;-66
2021/08/28 09:38:36;;;;;;;2.45;1.70;;;16.80;99.90;;;;;;5027770;28;20107;-67
2021/08/28 09:41:01;;;;;;;3.53;1.77;;;16.80;99.90;;;;;;5032779;28;20524;-68
2021/08/28 09:43:27;;;;;;;1.98;1.63;;;16.90;99.90;;;;;;5031591;28;20030;-67
2021/08/28 09:45:54;;;;;;;1.92;1.52;;;16.90;99.90;;;;;;5034177;28;20507;-68
2021/08/28 09:48:29;;;;;;;2.50;1.70;;;16.90;99.90;;;;;;5032514;28;20101;-67
2021/08/28 09:50:55;;;;;;;3.47;1.48;;;16.90;99.90;;;;;;5031309;28;20107;-68
2021/08/28 09:53:29;;;;;;;2.30;1.70;;;16.90;99.90;;;;;;5031894;28;20443;-68
2021/08/28 09:56:01;;;;;;;3.45;1.58;;;16.90;99.80;;;;;;5029514;28;20109;-67
2021/08/28 09:58:32;;;;;;;2.67;1.70;;;16.90;99.80;;;;;;5028653;28;20026;-69
2021/08/28 10:01:05;;;;;;;1.98;1.35;;;16.90;99.90;;;;;;5027065;28;20033;-68
2021/08/28 10:03:32;;;;;;;4.28;1.90;;;17.00;99.90;;;;;;5032124;28;20112;-66
2021/08/28 10:06:00;;;;;;;2.47;1.70;;;17.10;99.90;;;;;;5032240;28;20095;-68
2021/08/28 10:08:27;;;;;;;2.60;1.77;;;17.30;99.80;;;;;;5030579;28;20033;-68
2021/08/28 10:10:53;;;;;;;2.83;1.60;;;17.50;99.50;;;;;;5033454;28;20018;-66
2021/08/28 10:13:23;;;;;;;3.63;1.40;;;17.70;99.10;;;;;;5000266;28;20037;-68
2021/08/28 10:15:50;;;;;;;2.65;1.50;;;17.80;98.90;;;;;;5032437;28;20043;-68
2021/08/28 10:18:16;;;;;;;1.80;1.52;;;17.90;98.80;;;;;;5014847;28;20514;-68
2021/08/28 10:20:43;;;;;;;2.42;1.58;;;17.90;98.40;;;;;;5034401;28;20045;-69
2021/08/28 10:23:10;;;;;;;2.35;1.70;;;17.90;98.20;;;;;;5030892;28;20052;-69
2021/08/28 10:25:46;;;;;;;2.85;1.50;;;17.80;97.60;;;;;;5032331;28;20955;-68
2021/08/28 10:28:12;;;;;;;2.22;1.83;;;17.60;98.30;;;;;;4997846;28;20060;-68
2021/08/28 10:30:38;;;;;;;3.20;1.80;;;17.60;98.50;;;;;;5030992;28;20084;-69
2021/08/28 10:33:04;;;;;;;2.70;2.03;;;17.70;98.50;;;;;;5030413;28;20488;-68
2021/08/28 10:35:30;;;;;;;2.85;1.67;;;17.70;98.10;;;;;;5027742;28;20041;-68
2021/08/28 10:37:56;;;;;;;2.47;1.83;;;18.00;98.30;;;;;;5031692;28;20026;-68
2021/08/28 10:40:23;;;;;;;4.15;2.03;;;18.00;97.70;;;;;;5034417;28;20025;-68
2021/08/28 10:42:53;;;;;;;3.70;2.10;;;18.10;97.90;;;;;;5030744;28;20043;-69
2021/08/28 10:45:28;;;;;;;2.40;1.65;;;18.10;97.70;;;;;;5015027;28;20109;-68
2021/08/28 10:47:59;;;;;;;1.98;1.52;;;18.10;97.30;;;;;;5029088;28;20072;-69
2021/08/28 10:50:25;;;;;;;1.75;1.58;;;17.90;97.40;;;;;;5030023;28;20056;-69
2021/08/28 10:52:51;;;;;;;2.05;1.42;;;17.90;97.60;;;;;;5016310;28;20034;-69
2021/08/28 10:55:17;;;;;;;2.10;1.40;;;17.80;97.80;;;;;;5032326;28;20522;-68
2021/08/28 10:57:43;;;;;;;3.80;1.77;;;17.80;97.80;;;;;;5034921;28;20064;-68
2021/08/28 11:00:17;;;;;;;2.05;1.58;;;17.90;97.90;;;;;;5015178;28;20025;-68
2021/08/28 11:02:53;;;;;;;2.08;1.48;;;17.90;97.80;;;;;;5027928;28;20075;-68
2021/08/28 11:05:32;;;;;;;2.67;1.80;;;17.80;97.90;;;;;;5029546;28;20041;-68
2021/08/28 11:08:18;;;;;;;5.20;1.70;;;17.80;97.90;;;;;;5031603;28;20091;-69
2021/08/28 11:11:04;;;;;;;1.80;1.50;;;17.80;98.10;;;;;;5025972;28;20029;-68
2021/08/28 11:13:56;;;;;;;1.95;1.38;;;17.90;98.00;;;;;;5017866;28;20041;-67
2021/08/28 11:16:40;;;;;;;2.45;1.58;;;18.00;97.80;;;;;;5027550;28;20515;-68
2021/08/28 11:19:10;;;;;;;3.42;1.92;;;18.10;97.50;;;;;;5020660;28;20037;-68
2021/08/28 11:21:47;;;;;;;2.95;1.25;;;18.10;97.30;;;;;;5021448;28;20037;-68
2021/08/28 11:24:24;;;;;;;2.95;1.40;;;18.10;97.30;;;;;;5023025;28;20032;-67
2021/08/28 11:26:55;;;;;;;2.60;1.65;;;18.00;97.40;;;;;;5028476;28;20033;-68
2021/08/28 11:29:43;;;;;;;1.65;1.17;;;17.90;97.40;;;;;;5025234;28;20391;-69
2021/08/28 11:32:10;;;;;;;2.22;1.17;;;17.70;97.70;;;;;;5027151;28;20452;-69
2021/08/28 11:34:42;;;;;;;2.15;1.40;;;17.50;97.90;;;;;;5027870;28;20555;-68
2021/08/28 11:37:26;;;;;;;1.42;1.13;;;17.40;98.20;;;;;;5025503;28;20032;-68
2021/08/28 11:39:53;;;;;;;1.90;1.15;;;17.30;98.50;;;;;;5025501;28;20422;-68
2021/08/28 11:42:19;;;;;;;2.80;1.40;;;17.30;98.70;;;;;;5024083;28;20407;-68
2021/08/28 11:44:52;;;;;;;2.22;1.33;;;17.40;98.60;;;;;;5027240;28;20064;-68
2021/08/28 11:47:21;;;;;;;3.00;1.60;;;17.40;98.50;;;;;;5034114;28;20604;-67
2021/08/28 11:49:51;;;;;;;1.67;1.02;;;17.40;98.50;;;;;;5028015;28;20021;-69
2021/08/28 11:52:18;;;;;;;3.57;1.20;;;17.40;98.40;;;;;;5028837;28;20508;-68
2021/08/28 11:54:45;;;;;;;1.35;1.10;;;17.30;98.50;;;;;;5010957;28;20029;-67
2021/08/28 11:57:11;;;;;;;3.08;1.38;;;17.30;98.60;;;;;;5024742;28;20116;-68
2021/08/28 11:59:39;;;;;;;2.22;1.23;;;17.30;98.70;;;;;;5027561;28;20105;-68
2021/08/28 12:02:06;;;;;;;1.60;1.30;;;17.30;98.70;;;;;;5031629;28;20064;-70
2021/08/28 12:04:34;;;;;;;1.67;1.20;;;17.30;98.70;;;;;;5026784;28;20407;-68
2021/08/28 12:07:00;;;;;;;3.00;1.10;;;17.50;98.60;;;;;;5006164;28;20488;-66
2021/08/28 12:09:27;;;;;;;2.03;0.80;;;17.50;98.40;;;;;;5008154;28;20038;-69
2021/08/28 12:11:53;;;;;;;2.13;1.17;;;17.50;98.30;;;;;;5024676;28;20029;-68
2021/08/28 12:14:21;;;;;;;2.70;1.10;;;17.50;98.30;;;;;;5026041;28;20025;-67
2021/08/28 12:16:47;;;;;;;1.70;0.80;;;17.40;98.40;;;;;;5011282;28;20033;-68
2021/08/28 12:19:20;;;;;;;2.10;1.00;;;17.40;98.50;;;;;;5006756;28;20057;-69
2021/08/28 12:21:52;;;;;;;3.42;1.38;;;17.40;98.70;;;;;;5028612;28;20035;-69
2021/08/28 12:24:30;;;;;;;2.78;0.80;;;17.30;98.70;;;;;;5024587;28;20030;-68
2021/08/28 12:27:06;;;;;;;0.68;0.50;;;17.20;98.80;;;;;;5008025;28;20040;-68
2021/08/28 12:29:44;;;;;;;2.00;1.00;;;17.20;98.80;;;;;;5028781;28;20470;-68
2021/08/28 12:32:13;;;;;;;0.90;0.60;;;17.20;98.90;;;;;;5032490;28;20496;-68
2021/08/28 12:34:42;;;;;;;1.40;0.80;;;17.30;98.80;;;;;;5025669;28;20034;-67
2021/08/28 12:37:15;;;;;;;1.02;0.70;;;17.40;98.80;;;;;;5025150;28;20131;-67
2021/08/28 12:39:43;;;;;;;0.60;0.50;;;17.40;98.60;;;;;;5029627;28;20264;-68
2021/08/28 12:42:13;;;;;;;1.73;0.70;;;17.40;98.50;;;;;;5029806;28;20052;-68
2021/08/28 12:44:42;;;;;;;2.25;0.80;;;17.30;98.60;;;;;;5030073;28;20056;-68
2021/08/28 12:47:10;;;;;;;0.93;0.70;;;17.20;98.70;;;;;;5027685;28;20061;-68
2021/08/28 12:49:39;;;;;;;1.58;0.70;;;17.30;99.00;;;;;;5031124;28;20053;-67